This is the latest recevied weather packets stored in our database for station/object SV4JYD-13. If no packets are shown the sender has not sent any weather packets the latest 10 day(s).
| Time | Temp. | Humidity | Pressure | Rain* | Wind** | Luminosity | Snow |
|---|---|---|---|---|---|---|---|
| 1777917684 | 15.56° C | 67% | 1018 hPa | 0 mm | - | - | - |
| 1777916784 | 16.11° C | 60% | 1018 hPa | 0 mm | - | - | - |
| 1777915883 | 17.22° C | 53% | 1018 hPa | 0 mm | - | - | - |
| 1777914983 | 17.78° C | 56% | 1018 hPa | 0 mm | - | - | - |
| 1777914918 | 17.78° C | 54% | 1018 hPa | 0 mm | - | - | - |
| 1777914018 | 17.78° C | 50% | 1018 hPa | 0 mm | - | - | - |
| 1777913118 | 18.33° C | 50% | 1018 hPa | 0 mm | - | - | - |
| 1777912218 | 18.33° C | 53% | 1018 hPa | 0 mm | - | - | - |
| 1777911317 | 18.89° C | 51% | 1018 hPa | 0 mm | - | - | - |
| 1777910417 | 18.89° C | 47% | 1018 hPa | 0 mm | - | - | - |
| 1777909517 | 19.44° C | 45% | 1018 hPa | 0 mm | - | - | - |
| 1777908617 | 19.44° C | 40% | 1018 hPa | 0 mm | - | - | - |
| 1777907716 | 19.44° C | 40% | 1018 hPa | 0 mm | - | - | - |
| 1777906816 | 19.44° C | 41% | 1018 hPa | 0 mm | - | - | - |
| 1777905916 | 18.89° C | 42% | 1018 hPa | 0 mm | - | - | - |
| 1777905015 | 18.89° C | 42% | 1018 hPa | 0 mm | - | - | - |
| 1777904115 | 18.33° C | 44% | 1018 hPa | 0 mm | - | - | - |
| 1777903215 | 18.89° C | 44% | 1018 hPa | 0 mm | - | - | - |
| 1777902315 | 18.33° C | 46% | 1018 hPa | 0 mm | - | - | - |
| 1777901414 | 18.89° C | 46% | 1019 hPa | 0 mm | - | - | - |
| 1777900514 | 18.89° C | 48% | 1019 hPa | 0 mm | - | - | - |
| 1777899614 | 18.89° C | 48% | 1019 hPa | 0 mm | - | - | - |
| 1777898714 | 20.56° C | 46% | 1019 hPa | 0 mm | - | - | - |
| 1777897813 | 13.33° C | 70% | 1019 hPa | 0 mm | - | - | - |
| 1777896913 | 13.89° C | 70% | 1019 hPa | 0 mm | - | - | - |
* Rain latest hour (hover to see other rain measurements)
** Current wind speed in m/s (hover to see current wind gust speed)